sensor_id;sensor_type;location;lat;lon;timestamp;temperature;humidity
44863;DHT22;30597;49.628;10.850;2022-12-29T00:01:47;19.80;53.50
44863;DHT22;30597;49.628;10.850;2022-12-29T00:04:14;19.80;53.60
44863;DHT22;30597;49.628;10.850;2022-12-29T00:06:42;19.80;53.50
44863;DHT22;30597;49.628;10.850;2022-12-29T00:09:08;19.80;53.50
44863;DHT22;30597;49.628;10.850;2022-12-29T00:11:33;19.80;53.50
44863;DHT22;30597;49.628;10.850;2022-12-29T00:13:59;19.80;53.50
44863;DHT22;30597;49.628;10.850;2022-12-29T00:16:44;19.80;53.50
44863;DHT22;30597;49.628;10.850;2022-12-29T00:19:11;19.70;53.50
44863;DHT22;30597;49.628;10.850;2022-12-29T00:21:56;19.70;53.50
44863;DHT22;30597;49.628;10.850;2022-12-29T00:24:41;19.70;53.60
44863;DHT22;30597;49.628;10.850;2022-12-29T00:27:26;19.60;53.60
44863;DHT22;30597;49.628;10.850;2022-12-29T00:30:13;19.60;53.70
44863;DHT22;30597;49.628;10.850;2022-12-29T00:32:57;19.60;53.90
44863;DHT22;30597;49.628;10.850;2022-12-29T00:35:58;19.50;54.00
44863;DHT22;30597;49.628;10.850;2022-12-29T00:38:26;19.50;54.90
44863;DHT22;30597;49.628;10.850;2022-12-29T00:41:10;19.50;54.90
44863;DHT22;30597;49.628;10.850;2022-12-29T00:43:54;19.50;54.90
44863;DHT22;30597;49.628;10.850;2022-12-29T00:46:33;19.50;54.90
44863;DHT22;30597;49.628;10.850;2022-12-29T00:49:00;19.50;55.00
44863;DHT22;30597;49.628;10.850;2022-12-29T00:51:45;19.50;55.00
44863;DHT22;30597;49.628;10.850;2022-12-29T00:54:11;19.40;54.90
44863;DHT22;30597;49.628;10.850;2022-12-29T00:56:36;19.50;54.90
44863;DHT22;30597;49.628;10.850;2022-12-29T00:59:04;19.50;54.90
44863;DHT22;30597;49.628;10.850;2022-12-29T01:01:30;19.50;54.90
44863;DHT22;30597;49.628;10.850;2022-12-29T01:03:56;19.40;54.80
44863;DHT22;30597;49.628;10.850;2022-12-29T01:06:22;19.40;54.90
44863;DHT22;30597;49.628;10.850;2022-12-29T01:08:47;19.40;54.90
44863;DHT22;30597;49.628;10.850;2022-12-29T01:11:33;19.40;54.90
44863;DHT22;30597;49.628;10.850;2022-12-29T01:13:58;19.40;54.90
44863;DHT22;30597;49.628;10.850;2022-12-29T01:16:24;19.40;54.90
44863;DHT22;30597;49.628;10.850;2022-12-29T01:18:49;19.30;54.90
44863;DHT22;30597;49.628;10.850;2022-12-29T01:21:15;19.30;54.90
44863;DHT22;30597;49.628;10.850;2022-12-29T01:23:41;19.40;54.90
44863;DHT22;30597;49.628;10.850;2022-12-29T01:26:14;19.30;54.80
44863;DHT22;30597;49.628;10.850;2022-12-29T01:28:40;19.30;54.80
44863;DHT22;30597;49.628;10.850;2022-12-29T01:31:07;19.30;54.80
44863;DHT22;30597;49.628;10.850;2022-12-29T01:33:33;19.30;54.80
44863;DHT22;30597;49.628;10.850;2022-12-29T01:36:07;19.30;54.80
44863;DHT22;30597;49.628;10.850;2022-12-29T01:38:34;19.30;55.00
44863;DHT22;30597;49.628;10.850;2022-12-29T01:41:00;19.30;55.00
44863;DHT22;30597;49.628;10.850;2022-12-29T01:46:36;19.30;54.80
44863;DHT22;30597;49.628;10.850;2022-12-29T01:49:13;19.30;54.70
44863;DHT22;30597;49.628;10.850;2022-12-29T01:51:50;19.30;54.70
44863;DHT22;30597;49.628;10.850;2022-12-29T01:54:24;19.30;54.70
44863;DHT22;30597;49.628;10.850;2022-12-29T01:56:52;19.30;54.60
44863;DHT22;30597;49.628;10.850;2022-12-29T01:59:22;19.30;54.60
44863;DHT22;30597;49.628;10.850;2022-12-29T02:01:50;19.30;54.60
44863;DHT22;30597;49.628;10.850;2022-12-29T02:04:16;19.30;54.60
44863;DHT22;30597;49.628;10.850;2022-12-29T02:06:50;19.30;54.60
44863;DHT22;30597;49.628;10.850;2022-12-29T02:09:16;19.30;54.60
44863;DHT22;30597;49.628;10.850;2022-12-29T02:11:42;19.30;54.50
44863;DHT22;30597;49.628;10.850;2022-12-29T02:14:11;19.20;54.50
44863;DHT22;30597;49.628;10.850;2022-12-29T02:36:32;19.10;54.80
44863;DHT22;30597;49.628;10.850;2022-12-29T02:39:23;19.10;54.80
44863;DHT22;30597;49.628;10.850;2022-12-29T02:42:03;19.10;54.80
44863;DHT22;30597;49.628;10.850;2022-12-29T02:45:08;19.10;54.80
44863;DHT22;30597;49.628;10.850;2022-12-29T02:47:56;19.10;54.80
44863;DHT22;30597;49.628;10.850;2022-12-29T02:50:38;19.10;54.80
44863;DHT22;30597;49.628;10.850;2022-12-29T02:53:08;19.00;54.70
44863;DHT22;30597;49.628;10.850;2022-12-29T02:55:34;19.00;54.70
44863;DHT22;30597;49.628;10.850;2022-12-29T02:58:26;19.00;54.70
44863;DHT22;30597;49.628;10.850;2022-12-29T03:00:55;19.00;54.60
44863;DHT22;30597;49.628;10.850;2022-12-29T03:08:55;19.00;54.70
44863;DHT22;30597;49.628;10.850;2022-12-29T03:11:27;19.00;54.70
44863;DHT22;30597;49.628;10.850;2022-12-29T03:14:27;19.00;54.70
44863;DHT22;30597;49.628;10.850;2022-12-29T03:17:35;19.00;54.80
44863;DHT22;30597;49.628;10.850;2022-12-29T03:20:14;18.90;54.70
44863;DHT22;30597;49.628;10.850;2022-12-29T03:22:43;18.90;54.80
44863;DHT22;30597;49.628;10.850;2022-12-29T03:25:22;18.90;54.90
44863;DHT22;30597;49.628;10.850;2022-12-29T03:27:53;18.90;54.80
44863;DHT22;30597;49.628;10.850;2022-12-29T03:30:20;18.90;54.90
44863;DHT22;30597;49.628;10.850;2022-12-29T03:32:49;18.90;55.00
44863;DHT22;30597;49.628;10.850;2022-12-29T03:35:17;18.90;55.00
44863;DHT22;30597;49.628;10.850;2022-12-29T03:37:58;18.90;55.00
44863;DHT22;30597;49.628;10.850;2022-12-29T03:40:26;18.90;55.00
44863;DHT22;30597;49.628;10.850;2022-12-29T03:42:53;18.80;55.00
44863;DHT22;30597;49.628;10.850;2022-12-29T03:45:19;18.90;55.10
44863;DHT22;30597;49.628;10.850;2022-12-29T03:47:45;18.90;55.10
44863;DHT22;30597;49.628;10.850;2022-12-29T03:50:12;18.80;55.00
44863;DHT22;30597;49.628;10.850;2022-12-29T03:52:38;18.80;55.00
44863;DHT22;30597;49.628;10.850;2022-12-29T03:55:03;18.80;55.10
44863;DHT22;30597;49.628;10.850;2022-12-29T03:57:29;18.80;55.10
44863;DHT22;30597;49.628;10.850;2022-12-29T03:59:55;18.80;55.10
44863;DHT22;30597;49.628;10.850;2022-12-29T04:02:20;18.80;55.10
44863;DHT22;30597;49.628;10.850;2022-12-29T04:04:46;18.80;55.10
44863;DHT22;30597;49.628;10.850;2022-12-29T04:07:11;18.80;55.20
44863;DHT22;30597;49.628;10.850;2022-12-29T04:09:37;18.80;55.20
44863;DHT22;30597;49.628;10.850;2022-12-29T04:12:02;18.70;55.50
44863;DHT22;30597;49.628;10.850;2022-12-29T04:14:28;18.70;55.70
44863;DHT22;30597;49.628;10.850;2022-12-29T04:16:53;18.80;55.70
44863;DHT22;30597;49.628;10.850;2022-12-29T04:19:19;18.80;55.60
44863;DHT22;30597;49.628;10.850;2022-12-29T04:21:44;18.90;55.60
44863;DHT22;30597;49.628;10.850;2022-12-29T04:24:10;18.90;55.50
44863;DHT22;30597;49.628;10.850;2022-12-29T04:26:36;19.00;55.40
44863;DHT22;30597;49.628;10.850;2022-12-29T04:29:01;19.00;55.40
44863;DHT22;30597;49.628;10.850;2022-12-29T04:31:27;19.10;55.40
44863;DHT22;30597;49.628;10.850;2022-12-29T04:33:52;19.20;55.20
44863;DHT22;30597;49.628;10.850;2022-12-29T04:36:18;19.30;55.20
44863;DHT22;30597;49.628;10.850;2022-12-29T04:38:43;19.30;55.00
44863;DHT22;30597;49.628;10.850;2022-12-29T04:41:09;19.40;55.00
44863;DHT22;30597;49.628;10.850;2022-12-29T04:43:34;19.40;55.00
44863;DHT22;30597;49.628;10.850;2022-12-29T04:45:59;19.50;55.00
44863;DHT22;30597;49.628;10.850;2022-12-29T04:48:25;19.40;54.90
44863;DHT22;30597;49.628;10.850;2022-12-29T04:50:50;19.40;54.90
44863;DHT22;30597;49.628;10.850;2022-12-29T04:53:17;19.30;54.90
44863;DHT22;30597;49.628;10.850;2022-12-29T04:55:43;19.40;55.00
44863;DHT22;30597;49.628;10.850;2022-12-29T04:58:08;19.40;55.10
44863;DHT22;30597;49.628;10.850;2022-12-29T05:00:34;19.30;55.10
44863;DHT22;30597;49.628;10.850;2022-12-29T05:03:00;19.30;55.30
44863;DHT22;30597;49.628;10.850;2022-12-29T05:05:25;19.30;55.40
44863;DHT22;30597;49.628;10.850;2022-12-29T05:07:51;19.20;56.10
44863;DHT22;30597;49.628;10.850;2022-12-29T05:10:17;19.20;55.60
44863;DHT22;30597;49.628;10.850;2022-12-29T05:12:42;19.20;55.70
44863;DHT22;30597;49.628;10.850;2022-12-29T05:15:09;19.10;55.70
44863;DHT22;30597;49.628;10.850;2022-12-29T05:17:35;19.10;55.90
44863;DHT22;30597;49.628;10.850;2022-12-29T05:20:00;19.00;55.90
44863;DHT22;30597;49.628;10.850;2022-12-29T05:22:26;19.00;56.00
44863;DHT22;30597;49.628;10.850;2022-12-29T05:24:51;19.00;56.10
44863;DHT22;30597;49.628;10.850;2022-12-29T05:27:17;18.90;56.10
44863;DHT22;30597;49.628;10.850;2022-12-29T05:29:42;18.90;56.40
44863;DHT22;30597;49.628;10.850;2022-12-29T05:32:08;18.80;56.30
44863;DHT22;30597;49.628;10.850;2022-12-29T05:34:34;18.80;56.30
44863;DHT22;30597;49.628;10.850;2022-12-29T05:36:59;18.90;56.50
44863;DHT22;30597;49.628;10.850;2022-12-29T05:39:25;18.90;56.30
44863;DHT22;30597;49.628;10.850;2022-12-29T05:41:50;18.80;56.30
44863;DHT22;30597;49.628;10.850;2022-12-29T05:44:16;18.80;56.60
44863;DHT22;30597;49.628;10.850;2022-12-29T05:46:41;18.80;56.50
44863;DHT22;30597;49.628;10.850;2022-12-29T05:49:07;18.80;56.40
44863;DHT22;30597;49.628;10.850;2022-12-29T05:51:32;18.80;56.40
44863;DHT22;30597;49.628;10.850;2022-12-29T05:53:58;18.70;56.50
44863;DHT22;30597;49.628;10.850;2022-12-29T05:56:23;18.70;56.50
44863;DHT22;30597;49.628;10.850;2022-12-29T05:58:49;18.70;56.50
44863;DHT22;30597;49.628;10.850;2022-12-29T06:01:14;18.70;56.60
44863;DHT22;30597;49.628;10.850;2022-12-29T06:03:40;18.70;56.60
44863;DHT22;30597;49.628;10.850;2022-12-29T06:06:06;18.70;56.50
44863;DHT22;30597;49.628;10.850;2022-12-29T06:08:31;18.70;56.60
44863;DHT22;30597;49.628;10.850;2022-12-29T06:10:57;18.60;56.60
44863;DHT22;30597;49.628;10.850;2022-12-29T06:13:22;18.60;56.60
44863;DHT22;30597;49.628;10.850;2022-12-29T06:15:49;18.60;56.60
44863;DHT22;30597;49.628;10.850;2022-12-29T06:18:14;18.60;56.60
44863;DHT22;30597;49.628;10.850;2022-12-29T06:20:40;18.60;56.60
44863;DHT22;30597;49.628;10.850;2022-12-29T06:23:06;18.60;56.60
44863;DHT22;30597;49.628;10.850;2022-12-29T06:25:31;18.60;56.50
44863;DHT22;30597;49.628;10.850;2022-12-29T06:27:59;18.60;56.60
44863;DHT22;30597;49.628;10.850;2022-12-29T06:30:24;18.60;57.10
44863;DHT22;30597;49.628;10.850;2022-12-29T06:32:50;18.60;56.60
44863;DHT22;30597;49.628;10.850;2022-12-29T06:35:16;18.60;56.60
44863;DHT22;30597;49.628;10.850;2022-12-29T06:37:42;18.60;56.70
44863;DHT22;30597;49.628;10.850;2022-12-29T06:40:09;18.60;56.80
44863;DHT22;30597;49.628;10.850;2022-12-29T06:42:34;18.60;56.80
44863;DHT22;30597;49.628;10.850;2022-12-29T06:45:00;18.60;56.70
44863;DHT22;30597;49.628;10.850;2022-12-29T06:47:26;18.60;57.00
44863;DHT22;30597;49.628;10.850;2022-12-29T06:49:51;18.60;56.90
44863;DHT22;30597;49.628;10.850;2022-12-29T06:52:17;18.70;56.90
44863;DHT22;30597;49.628;10.850;2022-12-29T06:54:42;18.80;56.80
44863;DHT22;30597;49.628;10.850;2022-12-29T06:57:08;18.90;56.70
44863;DHT22;30597;49.628;10.850;2022-12-29T06:59:33;19.00;56.50
44863;DHT22;30597;49.628;10.850;2022-12-29T07:01:59;19.10;56.40
44863;DHT22;30597;49.628;10.850;2022-12-29T07:04:27;19.10;56.40
44863;DHT22;30597;49.628;10.850;2022-12-29T07:06:53;19.20;56.20
44863;DHT22;30597;49.628;10.850;2022-12-29T07:09:19;19.30;56.00
44863;DHT22;30597;49.628;10.850;2022-12-29T07:11:44;19.40;55.80
44863;DHT22;30597;49.628;10.850;2022-12-29T07:14:11;19.40;55.70
44863;DHT22;30597;49.628;10.850;2022-12-29T07:16:36;19.50;55.70
44863;DHT22;30597;49.628;10.850;2022-12-29T07:19:02;19.50;55.60
44863;DHT22;30597;49.628;10.850;2022-12-29T07:21:28;19.60;55.50
44863;DHT22;30597;49.628;10.850;2022-12-29T07:23:54;19.60;55.30
44863;DHT22;30597;49.628;10.850;2022-12-29T07:26:19;19.70;55.30
44863;DHT22;30597;49.628;10.850;2022-12-29T07:28:45;19.70;55.20
44863;DHT22;30597;49.628;10.850;2022-12-29T07:31:15;19.80;55.10
44863;DHT22;30597;49.628;10.850;2022-12-29T07:33:42;19.80;55.00
44863;DHT22;30597;49.628;10.850;2022-12-29T07:36:09;19.80;54.90
44863;DHT22;30597;49.628;10.850;2022-12-29T07:38:34;19.80;54.90
44863;DHT22;30597;49.628;10.850;2022-12-29T07:41:00;19.80;54.70
44863;DHT22;30597;49.628;10.850;2022-12-29T07:43:25;19.90;54.60
44863;DHT22;30597;49.628;10.850;2022-12-29T07:45:51;19.90;54.50
44863;DHT22;30597;49.628;10.850;2022-12-29T07:48:17;19.90;54.40
44863;DHT22;30597;49.628;10.850;2022-12-29T07:50:42;19.90;54.40
44863;DHT22;30597;49.628;10.850;2022-12-29T07:53:08;20.00;54.40
44863;DHT22;30597;49.628;10.850;2022-12-29T07:55:34;20.00;54.30
44863;DHT22;30597;49.628;10.850;2022-12-29T07:57:59;20.00;54.30
44863;DHT22;30597;49.628;10.850;2022-12-29T08:00:25;20.00;54.20
44863;DHT22;30597;49.628;10.850;2022-12-29T08:02:51;20.00;54.00
44863;DHT22;30597;49.628;10.850;2022-12-29T08:05:16;20.00;54.00
44863;DHT22;30597;49.628;10.850;2022-12-29T08:07:43;20.10;54.00
44863;DHT22;30597;49.628;10.850;2022-12-29T08:10:09;20.10;53.80
44863;DHT22;30597;49.628;10.850;2022-12-29T08:12:35;20.10;53.70
44863;DHT22;30597;49.628;10.850;2022-12-29T08:15:00;20.10;54.00
44863;DHT22;30597;49.628;10.850;2022-12-29T08:17:26;20.20;53.80
44863;DHT22;30597;49.628;10.850;2022-12-29T08:19:51;20.20;53.80
44863;DHT22;30597;49.628;10.850;2022-12-29T08:22:17;20.20;53.70
44863;DHT22;30597;49.628;10.850;2022-12-29T08:24:42;20.20;53.60
44863;DHT22;30597;49.628;10.850;2022-12-29T08:27:08;20.20;53.70
44863;DHT22;30597;49.628;10.850;2022-12-29T08:29:33;20.20;53.70
44863;DHT22;30597;49.628;10.850;2022-12-29T08:31:59;20.30;53.90
44863;DHT22;30597;49.628;10.850;2022-12-29T08:34:24;20.30;54.00
44863;DHT22;30597;49.628;10.850;2022-12-29T08:36:50;20.30;53.10
44863;DHT22;30597;49.628;10.850;2022-12-29T08:39:15;20.20;51.70
44863;DHT22;30597;49.628;10.850;2022-12-29T08:41:41;20.20;50.60
44863;DHT22;30597;49.628;10.850;2022-12-29T08:44:07;20.30;50.90
44863;DHT22;30597;49.628;10.850;2022-12-29T08:46:32;20.30;51.10
44863;DHT22;30597;49.628;10.850;2022-12-29T08:48:58;20.30;51.30
44863;DHT22;30597;49.628;10.850;2022-12-29T08:51:24;20.40;51.60
44863;DHT22;30597;49.628;10.850;2022-12-29T08:53:49;20.40;51.70
44863;DHT22;30597;49.628;10.850;2022-12-29T08:56:15;20.40;51.40
44863;DHT22;30597;49.628;10.850;2022-12-29T08:58:41;20.40;51.10
44863;DHT22;30597;49.628;10.850;2022-12-29T09:01:07;20.40;51.00
44863;DHT22;30597;49.628;10.850;2022-12-29T09:03:32;20.40;51.10
44863;DHT22;30597;49.628;10.850;2022-12-29T09:05:58;20.50;51.50
44863;DHT22;30597;49.628;10.850;2022-12-29T09:08:23;20.50;51.60
44863;DHT22;30597;49.628;10.850;2022-12-29T09:10:49;20.60;51.70
44863;DHT22;30597;49.628;10.850;2022-12-29T09:13:16;20.60;51.80
44863;DHT22;30597;49.628;10.850;2022-12-29T09:15:42;20.60;51.70
44863;DHT22;30597;49.628;10.850;2022-12-29T09:18:09;20.60;51.70
44863;DHT22;30597;49.628;10.850;2022-12-29T09:20:34;20.70;51.80
44863;DHT22;30597;49.628;10.850;2022-12-29T09:23:00;20.70;51.90
44863;DHT22;30597;49.628;10.850;2022-12-29T09:25:27;20.70;52.00
44863;DHT22;30597;49.628;10.850;2022-12-29T09:27:53;20.70;52.00
44863;DHT22;30597;49.628;10.850;2022-12-29T09:30:20;20.80;52.20
44863;DHT22;30597;49.628;10.850;2022-12-29T09:32:47;20.80;52.30
44863;DHT22;30597;49.628;10.850;2022-12-29T09:35:13;20.80;52.30
44863;DHT22;30597;49.628;10.850;2022-12-29T09:37:39;20.80;52.30
44863;DHT22;30597;49.628;10.850;2022-12-29T09:40:06;20.90;52.40
44863;DHT22;30597;49.628;10.850;2022-12-29T09:42:47;20.90;52.40
44863;DHT22;30597;49.628;10.850;2022-12-29T09:45:28;20.90;52.40
44863;DHT22;30597;49.628;10.850;2022-12-29T09:47:54;20.90;52.50
44863;DHT22;30597;49.628;10.850;2022-12-29T09:50:27;20.90;52.60
44863;DHT22;30597;49.628;10.850;2022-12-29T09:53:02;20.90;52.60
44863;DHT22;30597;49.628;10.850;2022-12-29T09:55:38;21.00;52.70
44863;DHT22;30597;49.628;10.850;2022-12-29T09:58:25;21.00;52.80
44863;DHT22;30597;49.628;10.850;2022-12-29T10:01:05;21.00;52.70
44863;DHT22;30597;49.628;10.850;2022-12-29T10:06:17;21.00;52.80
44863;DHT22;30597;49.628;10.850;2022-12-29T10:11:51;21.00;52.90
44863;DHT22;30597;49.628;10.850;2022-12-29T10:14:46;21.00;52.90
44863;DHT22;30597;49.628;10.850;2022-12-29T10:20:46;21.10;53.00
44863;DHT22;30597;49.628;10.850;2022-12-29T10:23:40;21.10;53.00
44863;DHT22;30597;49.628;10.850;2022-12-29T10:26:15;21.10;53.10
44863;DHT22;30597;49.628;10.850;2022-12-29T10:29:04;21.10;53.10
44863;DHT22;30597;49.628;10.850;2022-12-29T10:31:37;21.10;53.00
44863;DHT22;30597;49.628;10.850;2022-12-29T10:34:15;21.10;53.10
44863;DHT22;30597;49.628;10.850;2022-12-29T10:36:44;21.10;53.00
44863;DHT22;30597;49.628;10.850;2022-12-29T10:39:37;21.20;53.10
44863;DHT22;30597;49.628;10.850;2022-12-29T10:44:46;21.20;53.00
44863;DHT22;30597;49.628;10.850;2022-12-29T10:47:17;21.20;53.00
44863;DHT22;30597;49.628;10.850;2022-12-29T10:49:45;21.20;52.90
44863;DHT22;30597;49.628;10.850;2022-12-29T10:52:13;21.20;52.70
44863;DHT22;30597;49.628;10.850;2022-12-29T10:54:50;21.20;52.30
44863;DHT22;30597;49.628;10.850;2022-12-29T10:59:53;21.10;51.90
44863;DHT22;30597;49.628;10.850;2022-12-29T11:02:25;21.10;51.70
44863;DHT22;30597;49.628;10.850;2022-12-29T11:04:58;21.10;51.70
44863;DHT22;30597;49.628;10.850;2022-12-29T11:07:25;21.10;51.50
44863;DHT22;30597;49.628;10.850;2022-12-29T11:09:51;21.10;51.50
44863;DHT22;30597;49.628;10.850;2022-12-29T11:12:23;21.20;51.50
44863;DHT22;30597;49.628;10.850;2022-12-29T11:18:03;21.20;51.60
44863;DHT22;30597;49.628;10.850;2022-12-29T11:20:37;21.20;51.60
44863;DHT22;30597;49.628;10.850;2022-12-29T11:23:22;21.20;51.80
44863;DHT22;30597;49.628;10.850;2022-12-29T11:28:31;21.20;51.90
44863;DHT22;30597;49.628;10.850;2022-12-29T11:31:03;21.20;51.90
44863;DHT22;30597;49.628;10.850;2022-12-29T11:33:29;21.20;51.90
44863;DHT22;30597;49.628;10.850;2022-12-29T11:36:01;21.30;51.90
44863;DHT22;30597;49.628;10.850;2022-12-29T11:38:34;21.30;51.90
44863;DHT22;30597;49.628;10.850;2022-12-29T11:41:00;21.30;51.90
44863;DHT22;30597;49.628;10.850;2022-12-29T11:43:32;21.30;51.90
44863;DHT22;30597;49.628;10.850;2022-12-29T11:45:59;21.30;52.00
44863;DHT22;30597;49.628;10.850;2022-12-29T11:48:29;21.30;51.90
44863;DHT22;30597;49.628;10.850;2022-12-29T11:50:58;21.30;51.90
44863;DHT22;30597;49.628;10.850;2022-12-29T11:56:10;21.30;51.80
44863;DHT22;30597;49.628;10.850;2022-12-29T11:58:38;21.40;51.90
44863;DHT22;30597;49.628;10.850;2022-12-29T12:01:13;21.40;51.70
44863;DHT22;30597;49.628;10.850;2022-12-29T12:04:10;21.40;51.60
44863;DHT22;30597;49.628;10.850;2022-12-29T12:06:44;21.40;51.70
44863;DHT22;30597;49.628;10.850;2022-12-29T12:09:19;21.40;51.80
44863;DHT22;30597;49.628;10.850;2022-12-29T12:11:49;21.40;51.70
44863;DHT22;30597;49.628;10.850;2022-12-29T12:14:25;21.40;51.70
44863;DHT22;30597;49.628;10.850;2022-12-29T12:16:55;21.40;52.30
44863;DHT22;30597;49.628;10.850;2022-12-29T12:19:34;21.40;51.80
44863;DHT22;30597;49.628;10.850;2022-12-29T12:22:10;21.40;51.70
44863;DHT22;30597;49.628;10.850;2022-12-29T12:24:54;21.40;51.80
44863;DHT22;30597;49.628;10.850;2022-12-29T12:27:36;21.40;51.80
44863;DHT22;30597;49.628;10.850;2022-12-29T12:50:02;21.30;52.10
44863;DHT22;30597;49.628;10.850;2022-12-29T12:52:48;21.30;52.00
44863;DHT22;30597;49.628;10.850;2022-12-29T12:55:35;21.20;52.20
44863;DHT22;30597;49.628;10.850;2022-12-29T12:58:27;21.20;52.30
44863;DHT22;30597;49.628;10.850;2022-12-29T13:01:23;21.20;52.50
44863;DHT22;30597;49.628;10.850;2022-12-29T13:04:32;21.10;52.40
44863;DHT22;30597;49.628;10.850;2022-12-29T13:07:12;21.10;52.50
44863;DHT22;30597;49.628;10.850;2022-12-29T13:10:18;21.20;52.30
44863;DHT22;30597;49.628;10.850;2022-12-29T13:13:05;21.20;52.40
44863;DHT22;30597;49.628;10.850;2022-12-29T13:18:44;21.30;52.40
44863;DHT22;30597;49.628;10.850;2022-12-29T13:23:52;21.40;52.20
44863;DHT22;30597;49.628;10.850;2022-12-29T13:26:42;21.40;52.10
44863;DHT22;30597;49.628;10.850;2022-12-29T13:29:30;21.50;52.00
44863;DHT22;30597;49.628;10.850;2022-12-29T13:35:10;21.50;52.00
44863;DHT22;30597;49.628;10.850;2022-12-29T13:37:58;21.50;52.20
44863;DHT22;30597;49.628;10.850;2022-12-29T13:40:31;21.50;52.10
44863;DHT22;30597;49.628;10.850;2022-12-29T13:43:00;21.50;52.20
44863;DHT22;30597;49.628;10.850;2022-12-29T13:45:30;21.50;52.10
44863;DHT22;30597;49.628;10.850;2022-12-29T13:48:17;21.50;52.10
44863;DHT22;30597;49.628;10.850;2022-12-29T13:50:57;21.50;52.40
44863;DHT22;30597;49.628;10.850;2022-12-29T13:53:29;21.60;52.30
44863;DHT22;30597;49.628;10.850;2022-12-29T13:56:16;21.50;51.80
44863;DHT22;30597;49.628;10.850;2022-12-29T13:58:54;21.50;51.90
44863;DHT22;30597;49.628;10.850;2022-12-29T14:01:28;21.50;52.00
44863;DHT22;30597;49.628;10.850;2022-12-29T14:03:56;21.50;51.90
44863;DHT22;30597;49.628;10.850;2022-12-29T14:06:30;21.50;52.20
44863;DHT22;30597;49.628;10.850;2022-12-29T14:09:00;21.50;52.10
44863;DHT22;30597;49.628;10.850;2022-12-29T14:11:44;21.40;52.30
44863;DHT22;30597;49.628;10.850;2022-12-29T14:14:25;21.40;52.30
44863;DHT22;30597;49.628;10.850;2022-12-29T14:16:53;21.30;52.40
44863;DHT22;30597;49.628;10.850;2022-12-29T14:19:30;21.30;52.50
44863;DHT22;30597;49.628;10.850;2022-12-29T14:22:02;21.30;52.90
44863;DHT22;30597;49.628;10.850;2022-12-29T14:27:00;21.20;52.80
44863;DHT22;30597;49.628;10.850;2022-12-29T14:31:54;21.10;53.10
44863;DHT22;30597;49.628;10.850;2022-12-29T14:37:01;21.10;53.80
44863;DHT22;30597;49.628;10.850;2022-12-29T14:44:30;21.10;53.00
44863;DHT22;30597;49.628;10.850;2022-12-29T14:46:59;21.20;53.00
44863;DHT22;30597;49.628;10.850;2022-12-29T14:49:29;21.20;52.90
44863;DHT22;30597;49.628;10.850;2022-12-29T14:52:26;21.30;52.90
44863;DHT22;30597;49.628;10.850;2022-12-29T14:57:38;21.40;53.00
44863;DHT22;30597;49.628;10.850;2022-12-29T15:00:23;21.40;52.90
44863;DHT22;30597;49.628;10.850;2022-12-29T15:03:02;21.50;53.00
44863;DHT22;30597;49.628;10.850;2022-12-29T15:08:01;21.50;52.90
44863;DHT22;30597;49.628;10.850;2022-12-29T15:10:43;21.50;53.00
44863;DHT22;30597;49.628;10.850;2022-12-29T15:13:18;21.50;52.90
44863;DHT22;30597;49.628;10.850;2022-12-29T15:15:46;21.50;52.90
44863;DHT22;30597;49.628;10.850;2022-12-29T15:18:24;21.50;52.90
44863;DHT22;30597;49.628;10.850;2022-12-29T15:21:02;21.50;52.90
44863;DHT22;30597;49.628;10.850;2022-12-29T15:23:31;21.60;52.90
44863;DHT22;30597;49.628;10.850;2022-12-29T15:26:05;21.60;53.00
44863;DHT22;30597;49.628;10.850;2022-12-29T15:28:40;21.60;52.90
44863;DHT22;30597;49.628;10.850;2022-12-29T15:31:12;21.60;52.90
44863;DHT22;30597;49.628;10.850;2022-12-29T15:33:45;21.60;53.00
44863;DHT22;30597;49.628;10.850;2022-12-29T15:36:17;21.60;52.90
44863;DHT22;30597;49.628;10.850;2022-12-29T15:38:44;21.60;53.00
44863;DHT22;30597;49.628;10.850;2022-12-29T15:44:09;21.50;53.00
44863;DHT22;30597;49.628;10.850;2022-12-29T15:46:37;21.50;53.20
44863;DHT22;30597;49.628;10.850;2022-12-29T15:49:08;21.50;53.30
44863;DHT22;30597;49.628;10.850;2022-12-29T15:51:37;21.40;53.30
44863;DHT22;30597;49.628;10.850;2022-12-29T15:54:03;21.40;53.50
44863;DHT22;30597;49.628;10.850;2022-12-29T15:56:30;21.30;53.60
44863;DHT22;30597;49.628;10.850;2022-12-29T15:58:56;21.30;53.60
44863;DHT22;30597;49.628;10.850;2022-12-29T16:01:30;21.30;53.60
44863;DHT22;30597;49.628;10.850;2022-12-29T16:03:58;21.20;53.60
44863;DHT22;30597;49.628;10.850;2022-12-29T16:06:30;21.20;53.70
44863;DHT22;30597;49.628;10.850;2022-12-29T16:09:02;21.20;53.90
44863;DHT22;30597;49.628;10.850;2022-12-29T16:11:34;21.10;53.80
44863;DHT22;30597;49.628;10.850;2022-12-29T16:14:01;21.10;53.80
44863;DHT22;30597;49.628;10.850;2022-12-29T16:16:37;21.10;53.80
44863;DHT22;30597;49.628;10.850;2022-12-29T16:21:52;21.20;53.90
44863;DHT22;30597;49.628;10.850;2022-12-29T16:24:20;21.20;53.60
44863;DHT22;30597;49.628;10.850;2022-12-29T16:26:53;21.30;53.30
44863;DHT22;30597;49.628;10.850;2022-12-29T16:29:23;21.30;53.10
44863;DHT22;30597;49.628;10.850;2022-12-29T16:34:25;21.40;53.10
44863;DHT22;30597;49.628;10.850;2022-12-29T16:36:55;21.40;52.80
44863;DHT22;30597;49.628;10.850;2022-12-29T16:39:37;21.50;53.00
44863;DHT22;30597;49.628;10.850;2022-12-29T16:47:42;21.50;52.90
44863;DHT22;30597;49.628;10.850;2022-12-29T16:50:15;21.60;52.90
44863;DHT22;30597;49.628;10.850;2022-12-29T16:52:42;21.60;52.90
44863;DHT22;30597;49.628;10.850;2022-12-29T16:55:16;21.60;52.90
44863;DHT22;30597;49.628;10.850;2022-12-29T16:57:43;21.60;52.70
44863;DHT22;30597;49.628;10.850;2022-12-29T17:00:44;21.60;52.90
44863;DHT22;30597;49.628;10.850;2022-12-29T17:03:10;21.60;52.60
44863;DHT22;30597;49.628;10.850;2022-12-29T17:05:36;21.60;52.70
44863;DHT22;30597;49.628;10.850;2022-12-29T17:08:02;21.60;52.80
44863;DHT22;30597;49.628;10.850;2022-12-29T17:10:27;21.60;52.80
44863;DHT22;30597;49.628;10.850;2022-12-29T17:13:13;21.60;52.80
44863;DHT22;30597;49.628;10.850;2022-12-29T17:15:39;21.60;53.00
44863;DHT22;30597;49.628;10.850;2022-12-29T17:18:04;21.60;52.90
44863;DHT22;30597;49.628;10.850;2022-12-29T17:20:31;21.60;53.00
44863;DHT22;30597;49.628;10.850;2022-12-29T17:22:58;21.60;52.90
44863;DHT22;30597;49.628;10.850;2022-12-29T17:25:36;21.60;53.00
44863;DHT22;30597;49.628;10.850;2022-12-29T17:28:05;21.60;53.00
44863;DHT22;30597;49.628;10.850;2022-12-29T17:30:34;21.60;53.10